sensor_id;sensor_type;location;lat;lon;timestamp;P1;durP1;ratioP1;P2;durP2;ratioP2
12129;SDS011;6128;59.340;18.040;2023-05-23T00:00:24;4.20;;;2.83;;
12129;SDS011;6128;59.340;18.040;2023-05-23T00:02:51;4.53;;;3.20;;
12129;SDS011;6128;59.340;18.040;2023-05-23T00:05:19;4.67;;;2.93;;
12129;SDS011;6128;59.340;18.040;2023-05-23T00:07:46;4.73;;;3.17;;
12129;SDS011;6128;59.340;18.040;2023-05-23T00:10:13;5.53;;;3.27;;
12129;SDS011;6128;59.340;18.040;2023-05-23T00:12:41;7.27;;;3.63;;
12129;SDS011;6128;59.340;18.040;2023-05-23T00:15:10;3.90;;;3.13;;
12129;SDS011;6128;59.340;18.040;2023-05-23T00:17:37;4.77;;;2.97;;
12129;SDS011;6128;59.340;18.040;2023-05-23T00:20:05;3.50;;;3.07;;
12129;SDS011;6128;59.340;18.040;2023-05-23T00:22:35;3.67;;;2.93;;
12129;SDS011;6128;59.340;18.040;2023-05-23T00:25:07;3.83;;;2.83;;
12129;SDS011;6128;59.340;18.040;2023-05-23T00:27:35;4.27;;;2.57;;
12129;SDS011;6128;59.340;18.040;2023-05-23T00:30:02;6.23;;;2.97;;
12129;SDS011;6128;59.340;18.040;2023-05-23T00:32:31;3.17;;;2.87;;
12129;SDS011;6128;59.340;18.040;2023-05-23T00:34:59;4.00;;;3.00;;
12129;SDS011;6128;59.340;18.040;2023-05-23T00:37:26;6.40;;;2.50;;
12129;SDS011;6128;59.340;18.040;2023-05-23T00:39:53;4.93;;;2.73;;
12129;SDS011;6128;59.340;18.040;2023-05-23T00:42:21;4.00;;;2.70;;
12129;SDS011;6128;59.340;18.040;2023-05-23T00:44:48;3.77;;;2.83;;
12129;SDS011;6128;59.340;18.040;2023-05-23T00:47:15;3.40;;;2.90;;
12129;SDS011;6128;59.340;18.040;2023-05-23T00:49:44;17.20;;;6.87;;
12129;SDS011;6128;59.340;18.040;2023-05-23T00:52:15;5.20;;;3.10;;
12129;SDS011;6128;59.340;18.040;2023-05-23T00:54:43;6.90;;;3.40;;
12129;SDS011;6128;59.340;18.040;2023-05-23T00:57:10;6.73;;;2.90;;
12129;SDS011;6128;59.340;18.040;2023-05-23T00:59:41;5.63;;;2.70;;
12129;SDS011;6128;59.340;18.040;2023-05-23T01:02:11;3.40;;;2.37;;
12129;SDS011;6128;59.340;18.040;2023-05-23T01:04:38;4.33;;;2.67;;
12129;SDS011;6128;59.340;18.040;2023-05-23T01:07:08;4.13;;;2.40;;
12129;SDS011;6128;59.340;18.040;2023-05-23T01:09:36;2.80;;;2.40;;
12129;SDS011;6128;59.340;18.040;2023-05-23T01:12:08;4.17;;;3.03;;
12129;SDS011;6128;59.340;18.040;2023-05-23T01:14:44;2.87;;;2.57;;
12129;SDS011;6128;59.340;18.040;2023-05-23T01:17:18;5.30;;;2.50;;
12129;SDS011;6128;59.340;18.040;2023-05-23T01:19:54;3.80;;;2.33;;
12129;SDS011;6128;59.340;18.040;2023-05-23T01:22:35;6.07;;;2.60;;
12129;SDS011;6128;59.340;18.040;2023-05-23T01:25:17;6.50;;;2.47;;
12129;SDS011;6128;59.340;18.040;2023-05-23T01:27:55;4.37;;;2.33;;
12129;SDS011;6128;59.340;18.040;2023-05-23T01:30:26;3.43;;;2.03;;
12129;SDS011;6128;59.340;18.040;2023-05-23T01:32:58;5.97;;;3.03;;
12129;SDS011;6128;59.340;18.040;2023-05-23T01:35:26;4.93;;;2.50;;
12129;SDS011;6128;59.340;18.040;2023-05-23T01:37:55;5.27;;;2.87;;
12129;SDS011;6128;59.340;18.040;2023-05-23T01:40:23;4.97;;;2.77;;
12129;SDS011;6128;59.340;18.040;2023-05-23T01:42:51;3.43;;;2.40;;
12129;SDS011;6128;59.340;18.040;2023-05-23T01:45:22;4.43;;;2.37;;
12129;SDS011;6128;59.340;18.040;2023-05-23T01:47:52;3.20;;;2.57;;
12129;SDS011;6128;59.340;18.040;2023-05-23T01:50:21;3.23;;;2.70;;
12129;SDS011;6128;59.340;18.040;2023-05-23T01:52:50;4.73;;;2.53;;
12129;SDS011;6128;59.340;18.040;2023-05-23T01:55:18;4.70;;;2.57;;
12129;SDS011;6128;59.340;18.040;2023-05-23T01:57:48;4.70;;;2.47;;
12129;SDS011;6128;59.340;18.040;2023-05-23T02:00:16;2.93;;;2.63;;
12129;SDS011;6128;59.340;18.040;2023-05-23T02:02:45;4.53;;;2.53;;
12129;SDS011;6128;59.340;18.040;2023-05-23T02:05:13;3.23;;;2.30;;
12129;SDS011;6128;59.340;18.040;2023-05-23T02:07:40;5.07;;;2.60;;
12129;SDS011;6128;59.340;18.040;2023-05-23T02:10:07;6.57;;;2.77;;
12129;SDS011;6128;59.340;18.040;2023-05-23T02:12:35;3.53;;;2.43;;
12129;SDS011;6128;59.340;18.040;2023-05-23T02:15:02;3.57;;;2.20;;
12129;SDS011;6128;59.340;18.040;2023-05-23T02:17:30;4.20;;;2.80;;
12129;SDS011;6128;59.340;18.040;2023-05-23T02:19:58;4.10;;;2.80;;
12129;SDS011;6128;59.340;18.040;2023-05-23T02:22:26;3.23;;;2.10;;
12129;SDS011;6128;59.340;18.040;2023-05-23T02:24:53;2.93;;;2.33;;
12129;SDS011;6128;59.340;18.040;2023-05-23T02:27:20;2.87;;;2.47;;
12129;SDS011;6128;59.340;18.040;2023-05-23T02:29:47;5.70;;;2.40;;
12129;SDS011;6128;59.340;18.040;2023-05-23T02:32:14;2.20;;;2.00;;
12129;SDS011;6128;59.340;18.040;2023-05-23T02:34:41;3.17;;;1.60;;
12129;SDS011;6128;59.340;18.040;2023-05-23T02:37:12;4.27;;;1.67;;
12129;SDS011;6128;59.340;18.040;2023-05-23T02:39:39;1.43;;;1.33;;
12129;SDS011;6128;59.340;18.040;2023-05-23T02:42:06;3.30;;;1.60;;
12129;SDS011;6128;59.340;18.040;2023-05-23T02:44:33;3.33;;;1.47;;
12129;SDS011;6128;59.340;18.040;2023-05-23T02:47:00;2.33;;;1.73;;
12129;SDS011;6128;59.340;18.040;2023-05-23T02:49:28;2.03;;;1.67;;
12129;SDS011;6128;59.340;18.040;2023-05-23T02:51:55;3.30;;;1.73;;
12129;SDS011;6128;59.340;18.040;2023-05-23T02:54:23;2.07;;;1.50;;
12129;SDS011;6128;59.340;18.040;2023-05-23T02:56:50;4.27;;;1.70;;
12129;SDS011;6128;59.340;18.040;2023-05-23T02:59:19;3.43;;;1.87;;
12129;SDS011;6128;59.340;18.040;2023-05-23T03:01:47;2.70;;;1.70;;
12129;SDS011;6128;59.340;18.040;2023-05-23T03:04:14;1.70;;;1.60;;
12129;SDS011;6128;59.340;18.040;2023-05-23T03:06:42;2.47;;;1.57;;
12129;SDS011;6128;59.340;18.040;2023-05-23T03:09:09;1.93;;;1.73;;
12129;SDS011;6128;59.340;18.040;2023-05-23T03:11:38;3.27;;;1.77;;
12129;SDS011;6128;59.340;18.040;2023-05-23T03:14:05;1.30;;;1.20;;
12129;SDS011;6128;59.340;18.040;2023-05-23T03:16:32;2.93;;;1.50;;
12129;SDS011;6128;59.340;18.040;2023-05-23T03:18:59;2.40;;;1.47;;
12129;SDS011;6128;59.340;18.040;2023-05-23T03:21:26;3.23;;;1.60;;
12129;SDS011;6128;59.340;18.040;2023-05-23T03:23:53;2.80;;;1.30;;
12129;SDS011;6128;59.340;18.040;2023-05-23T03:26:20;3.37;;;1.70;;
12129;SDS011;6128;59.340;18.040;2023-05-23T03:28:49;1.40;;;1.30;;
12129;SDS011;6128;59.340;18.040;2023-05-23T03:31:16;2.30;;;1.60;;
12129;SDS011;6128;59.340;18.040;2023-05-23T03:33:43;1.90;;;1.40;;
12129;SDS011;6128;59.340;18.040;2023-05-23T03:36:10;2.53;;;1.50;;
12129;SDS011;6128;59.340;18.040;2023-05-23T03:38:37;4.23;;;1.47;;
12129;SDS011;6128;59.340;18.040;2023-05-23T03:41:04;2.93;;;1.30;;
12129;SDS011;6128;59.340;18.040;2023-05-23T03:43:32;2.83;;;1.70;;
12129;SDS011;6128;59.340;18.040;2023-05-23T03:46:00;2.67;;;1.80;;
12129;SDS011;6128;59.340;18.040;2023-05-23T03:48:28;3.67;;;1.50;;
12129;SDS011;6128;59.340;18.040;2023-05-23T03:50:55;4.40;;;1.90;;
12129;SDS011;6128;59.340;18.040;2023-05-23T03:53:22;4.13;;;1.80;;
12129;SDS011;6128;59.340;18.040;2023-05-23T03:55:49;5.40;;;1.73;;
12129;SDS011;6128;59.340;18.040;2023-05-23T03:58:18;3.83;;;1.77;;
12129;SDS011;6128;59.340;18.040;2023-05-23T04:00:45;1.67;;;1.53;;
12129;SDS011;6128;59.340;18.040;2023-05-23T04:03:14;3.33;;;1.57;;
12129;SDS011;6128;59.340;18.040;2023-05-23T04:05:41;1.90;;;1.40;;
12129;SDS011;6128;59.340;18.040;2023-05-23T04:08:08;3.10;;;1.37;;
12129;SDS011;6128;59.340;18.040;2023-05-23T04:10:35;3.00;;;1.63;;
12129;SDS011;6128;59.340;18.040;2023-05-23T04:13:03;4.00;;;1.27;;
12129;SDS011;6128;59.340;18.040;2023-05-23T04:15:30;4.13;;;1.60;;
12129;SDS011;6128;59.340;18.040;2023-05-23T04:17:58;3.30;;;1.50;;
12129;SDS011;6128;59.340;18.040;2023-05-23T04:20:27;3.43;;;1.57;;
12129;SDS011;6128;59.340;18.040;2023-05-23T04:22:55;2.40;;;1.60;;
12129;SDS011;6128;59.340;18.040;2023-05-23T04:25:22;3.87;;;1.50;;
12129;SDS011;6128;59.340;18.040;2023-05-23T04:27:50;1.83;;;1.43;;
12129;SDS011;6128;59.340;18.040;2023-05-23T04:30:18;1.33;;;1.23;;
12129;SDS011;6128;59.340;18.040;2023-05-23T04:32:46;1.73;;;1.40;;
12129;SDS011;6128;59.340;18.040;2023-05-23T04:35:13;5.70;;;1.30;;
12129;SDS011;6128;59.340;18.040;2023-05-23T04:37:42;1.70;;;1.50;;
12129;SDS011;6128;59.340;18.040;2023-05-23T04:40:10;3.37;;;1.60;;
12129;SDS011;6128;59.340;18.040;2023-05-23T04:42:38;1.43;;;1.20;;
12129;SDS011;6128;59.340;18.040;2023-05-23T04:45:07;2.60;;;1.47;;
12129;SDS011;6128;59.340;18.040;2023-05-23T04:47:35;1.83;;;1.43;;
12129;SDS011;6128;59.340;18.040;2023-05-23T04:50:03;3.13;;;1.60;;
12129;SDS011;6128;59.340;18.040;2023-05-23T04:52:30;1.77;;;1.60;;
12129;SDS011;6128;59.340;18.040;2023-05-23T04:54:59;2.63;;;1.43;;
12129;SDS011;6128;59.340;18.040;2023-05-23T04:57:26;4.53;;;1.53;;
12129;SDS011;6128;59.340;18.040;2023-05-23T04:59:53;3.53;;;1.37;;
12129;SDS011;6128;59.340;18.040;2023-05-23T05:02:21;1.60;;;1.27;;
12129;SDS011;6128;59.340;18.040;2023-05-23T05:04:48;3.43;;;1.40;;
12129;SDS011;6128;59.340;18.040;2023-05-23T05:07:15;1.93;;;1.53;;
12129;SDS011;6128;59.340;18.040;2023-05-23T05:09:42;4.00;;;1.53;;
12129;SDS011;6128;59.340;18.040;2023-05-23T05:12:11;3.43;;;1.43;;
12129;SDS011;6128;59.340;18.040;2023-05-23T05:14:38;3.03;;;1.23;;
12129;SDS011;6128;59.340;18.040;2023-05-23T05:17:05;4.20;;;1.77;;
12129;SDS011;6128;59.340;18.040;2023-05-23T05:19:32;4.00;;;1.60;;
12129;SDS011;6128;59.340;18.040;2023-05-23T05:21:59;2.90;;;1.50;;
12129;SDS011;6128;59.340;18.040;2023-05-23T05:24:26;4.97;;;1.70;;
12129;SDS011;6128;59.340;18.040;2023-05-23T05:26:53;8.37;;;1.80;;
12129;SDS011;6128;59.340;18.040;2023-05-23T05:29:22;3.27;;;1.60;;
12129;SDS011;6128;59.340;18.040;2023-05-23T05:31:50;7.07;;;1.60;;
12129;SDS011;6128;59.340;18.040;2023-05-23T05:34:17;5.83;;;2.33;;
12129;SDS011;6128;59.340;18.040;2023-05-23T05:36:45;2.63;;;1.93;;
12129;SDS011;6128;59.340;18.040;2023-05-23T05:39:12;3.03;;;1.57;;
12129;SDS011;6128;59.340;18.040;2023-05-23T05:41:39;6.03;;;1.80;;
12129;SDS011;6128;59.340;18.040;2023-05-23T05:44:07;4.90;;;1.63;;
12129;SDS011;6128;59.340;18.040;2023-05-23T05:46:35;3.50;;;1.30;;
12129;SDS011;6128;59.340;18.040;2023-05-23T05:49:02;4.10;;;1.30;;
12129;SDS011;6128;59.340;18.040;2023-05-23T05:51:29;3.60;;;1.57;;
12129;SDS011;6128;59.340;18.040;2023-05-23T05:53:56;3.40;;;1.50;;
12129;SDS011;6128;59.340;18.040;2023-05-23T05:56:23;3.80;;;1.40;;
12129;SDS011;6128;59.340;18.040;2023-05-23T05:58:52;3.27;;;1.80;;
12129;SDS011;6128;59.340;18.040;2023-05-23T06:01:19;4.10;;;1.37;;
12129;SDS011;6128;59.340;18.040;2023-05-23T06:03:47;6.03;;;1.70;;
12129;SDS011;6128;59.340;18.040;2023-05-23T06:06:15;2.73;;;1.60;;
12129;SDS011;6128;59.340;18.040;2023-05-23T06:08:42;2.50;;;1.52;;
12129;SDS011;6128;59.340;18.040;2023-05-23T06:11:09;4.85;;;1.73;;
12129;SDS011;6128;59.340;18.040;2023-05-23T06:13:36;5.70;;;1.67;;
12129;SDS011;6128;59.340;18.040;2023-05-23T06:16:04;4.93;;;1.67;;
12129;SDS011;6128;59.340;18.040;2023-05-23T06:18:32;4.72;;;1.70;;
12129;SDS011;6128;59.340;18.040;2023-05-23T06:21:00;3.72;;;1.42;;
12129;SDS011;6128;59.340;18.040;2023-05-23T06:23:28;4.90;;;1.67;;
12129;SDS011;6128;59.340;18.040;2023-05-23T06:25:55;3.88;;;1.35;;
12129;SDS011;6128;59.340;18.040;2023-05-23T06:28:23;3.83;;;1.50;;
12129;SDS011;6128;59.340;18.040;2023-05-23T06:30:50;2.10;;;1.50;;
12129;SDS011;6128;59.340;18.040;2023-05-23T06:33:17;3.65;;;1.30;;
12129;SDS011;6128;59.340;18.040;2023-05-23T06:35:45;2.22;;;1.38;;
12129;SDS011;6128;59.340;18.040;2023-05-23T06:38:13;5.00;;;1.50;;
12129;SDS011;6128;59.340;18.040;2023-05-23T06:40:40;4.60;;;1.42;;
12129;SDS011;6128;59.340;18.040;2023-05-23T06:43:08;8.77;;;1.35;;
12129;SDS011;6128;59.340;18.040;2023-05-23T06:45:35;7.88;;;2.30;;
12129;SDS011;6128;59.340;18.040;2023-05-23T06:48:02;3.45;;;1.48;;
12129;SDS011;6128;59.340;18.040;2023-05-23T06:50:30;5.07;;;1.38;;
12129;SDS011;6128;59.340;18.040;2023-05-23T06:52:57;4.13;;;1.63;;
12129;SDS011;6128;59.340;18.040;2023-05-23T06:55:25;3.35;;;1.70;;
12129;SDS011;6128;59.340;18.040;2023-05-23T06:57:53;2.47;;;1.40;;
12129;SDS011;6128;59.340;18.040;2023-05-23T07:00:20;4.13;;;1.35;;
12129;SDS011;6128;59.340;18.040;2023-05-23T07:02:47;3.75;;;1.40;;
12129;SDS011;6128;59.340;18.040;2023-05-23T07:05:15;2.38;;;1.50;;
12129;SDS011;6128;59.340;18.040;2023-05-23T07:07:42;3.13;;;1.40;;
12129;SDS011;6128;59.340;18.040;2023-05-23T07:10:09;2.42;;;1.42;;
12129;SDS011;6128;59.340;18.040;2023-05-23T07:12:38;3.42;;;1.45;;
12129;SDS011;6128;59.340;18.040;2023-05-23T07:15:06;2.40;;;1.20;;
12129;SDS011;6128;59.340;18.040;2023-05-23T07:17:34;4.05;;;1.13;;
12129;SDS011;6128;59.340;18.040;2023-05-23T07:20:01;1.55;;;1.05;;
12129;SDS011;6128;59.340;18.040;2023-05-23T07:22:29;2.30;;;1.33;;
12129;SDS011;6128;59.340;18.040;2023-05-23T07:24:58;6.88;;;1.70;;
12129;SDS011;6128;59.340;18.040;2023-05-23T07:27:25;3.42;;;1.90;;
12129;SDS011;6128;59.340;18.040;2023-05-23T07:29:54;2.33;;;1.40;;
12129;SDS011;6128;59.340;18.040;2023-05-23T07:32:21;1.63;;;0.93;;
12129;SDS011;6128;59.340;18.040;2023-05-23T07:34:48;2.13;;;1.23;;
12129;SDS011;6128;59.340;18.040;2023-05-23T07:37:17;1.30;;;1.20;;
12129;SDS011;6128;59.340;18.040;2023-05-23T07:39:44;1.77;;;1.30;;
12129;SDS011;6128;59.340;18.040;2023-05-23T07:42:11;3.58;;;1.10;;
12129;SDS011;6128;59.340;18.040;2023-05-23T07:44:40;2.88;;;1.00;;
12129;SDS011;6128;59.340;18.040;2023-05-23T07:47:08;4.43;;;1.45;;
12129;SDS011;6128;59.340;18.040;2023-05-23T07:49:35;3.65;;;0.98;;
12129;SDS011;6128;59.340;18.040;2023-05-23T07:52:03;3.58;;;1.42;;
12129;SDS011;6128;59.340;18.040;2023-05-23T07:54:31;2.85;;;1.20;;
12129;SDS011;6128;59.340;18.040;2023-05-23T07:56:58;3.35;;;1.30;;
12129;SDS011;6128;59.340;18.040;2023-05-23T07:59:25;2.17;;;1.27;;
12129;SDS011;6128;59.340;18.040;2023-05-23T08:01:54;2.22;;;1.17;;
12129;SDS011;6128;59.340;18.040;2023-05-23T08:04:22;2.80;;;1.05;;
12129;SDS011;6128;59.340;18.040;2023-05-23T08:06:49;3.90;;;1.48;;
12129;SDS011;6128;59.340;18.040;2023-05-23T08:09:17;3.08;;;1.10;;
12129;SDS011;6128;59.340;18.040;2023-05-23T08:11:44;2.70;;;1.10;;
12129;SDS011;6128;59.340;18.040;2023-05-23T08:14:11;2.35;;;1.42;;
12129;SDS011;6128;59.340;18.040;2023-05-23T08:16:38;1.27;;;1.13;;
12129;SDS011;6128;59.340;18.040;2023-05-23T08:19:06;1.83;;;0.93;;
12129;SDS011;6128;59.340;18.040;2023-05-23T08:21:34;1.70;;;1.55;;
12129;SDS011;6128;59.340;18.040;2023-05-23T08:24:01;3.80;;;1.50;;
12129;SDS011;6128;59.340;18.040;2023-05-23T08:26:29;1.92;;;1.17;;
12129;SDS011;6128;59.340;18.040;2023-05-23T08:28:59;1.50;;;1.08;;
12129;SDS011;6128;59.340;18.040;2023-05-23T08:31:27;2.65;;;1.23;;
12129;SDS011;6128;59.340;18.040;2023-05-23T08:33:55;2.80;;;1.20;;
12129;SDS011;6128;59.340;18.040;2023-05-23T08:36:24;3.30;;;1.02;;
12129;SDS011;6128;59.340;18.040;2023-05-23T08:38:53;2.88;;;1.23;;
12129;SDS011;6128;59.340;18.040;2023-05-23T08:41:21;4.25;;;1.08;;
12129;SDS011;6128;59.340;18.040;2023-05-23T08:43:49;3.17;;;1.20;;
12129;SDS011;6128;59.340;18.040;2023-05-23T08:46:17;1.20;;;0.95;;
12129;SDS011;6128;59.340;18.040;2023-05-23T08:48:45;3.55;;;1.10;;
12129;SDS011;6128;59.340;18.040;2023-05-23T08:51:18;2.38;;;1.00;;
12129;SDS011;6128;59.340;18.040;2023-05-23T08:53:48;2.92;;;1.20;;
12129;SDS011;6128;59.340;18.040;2023-05-23T08:56:19;4.93;;;1.20;;
12129;SDS011;6128;59.340;18.040;2023-05-23T08:58:46;1.42;;;1.08;;
12129;SDS011;6128;59.340;18.040;2023-05-23T09:01:13;3.20;;;1.05;;
12129;SDS011;6128;59.340;18.040;2023-05-23T09:03:42;0.77;;;0.77;;
12129;SDS011;6128;59.340;18.040;2023-05-23T09:06:09;1.20;;;1.08;;
12129;SDS011;6128;59.340;18.040;2023-05-23T09:08:37;1.50;;;1.08;;
12129;SDS011;6128;59.340;18.040;2023-05-23T09:11:05;1.92;;;1.33;;
12129;SDS011;6128;59.340;18.040;2023-05-23T09:13:34;2.00;;;1.48;;
12129;SDS011;6128;59.340;18.040;2023-05-23T09:16:01;2.35;;;1.27;;
12129;SDS011;6128;59.340;18.040;2023-05-23T09:18:32;2.88;;;1.27;;
12129;SDS011;6128;59.340;18.040;2023-05-23T09:21:01;3.05;;;1.08;;
12129;SDS011;6128;59.340;18.040;2023-05-23T09:23:28;2.55;;;1.33;;
12129;SDS011;6128;59.340;18.040;2023-05-23T09:25:59;2.38;;;1.40;;
12129;SDS011;6128;59.340;18.040;2023-05-23T09:28:28;1.95;;;1.40;;
12129;SDS011;6128;59.340;18.040;2023-05-23T09:30:59;2.63;;;1.00;;
12129;SDS011;6128;59.340;18.040;2023-05-23T09:33:28;1.35;;;1.25;;
12129;SDS011;6128;59.340;18.040;2023-05-23T09:36:05;2.33;;;1.10;;
12129;SDS011;6128;59.340;18.040;2023-05-23T09:38:36;1.90;;;1.25;;
12129;SDS011;6128;59.340;18.040;2023-05-23T09:41:04;1.75;;;1.35;;
12129;SDS011;6128;59.340;18.040;2023-05-23T09:43:32;1.90;;;1.30;;
12129;SDS011;6128;59.340;18.040;2023-05-23T09:46:02;2.05;;;1.23;;
12129;SDS011;6128;59.340;18.040;2023-05-23T09:48:33;2.90;;;1.42;;
12129;SDS011;6128;59.340;18.040;2023-05-23T09:51:02;2.45;;;1.20;;
12129;SDS011;6128;59.340;18.040;2023-05-23T09:53:31;3.00;;;1.38;;
12129;SDS011;6128;59.340;18.040;2023-05-23T09:55:58;2.05;;;1.45;;
12129;SDS011;6128;59.340;18.040;2023-05-23T09:58:27;2.25;;;1.27;;
12129;SDS011;6128;59.340;18.040;2023-05-23T10:01:06;3.60;;;1.38;;
12129;SDS011;6128;59.340;18.040;2023-05-23T10:03:44;2.15;;;1.17;;
12129;SDS011;6128;59.340;18.040;2023-05-23T10:06:16;2.42;;;1.38;;
12129;SDS011;6128;59.340;18.040;2023-05-23T10:08:49;4.72;;;1.58;;
12129;SDS011;6128;59.340;18.040;2023-05-23T10:14:17;2.42;;;1.10;;
12129;SDS011;6128;59.340;18.040;2023-05-23T10:16:48;2.22;;;1.30;;
12129;SDS011;6128;59.340;18.040;2023-05-23T10:19:26;1.52;;;1.23;;
12129;SDS011;6128;59.340;18.040;2023-05-23T10:22:03;2.75;;;1.20;;
12129;SDS011;6128;59.340;18.040;2023-05-23T10:24:33;2.97;;;1.00;;
12129;SDS011;6128;59.340;18.040;2023-05-23T10:27:01;0.98;;;0.90;;
12129;SDS011;6128;59.340;18.040;2023-05-23T10:29:29;3.28;;;1.35;;
12129;SDS011;6128;59.340;18.040;2023-05-23T10:32:01;2.75;;;1.25;;
12129;SDS011;6128;59.340;18.040;2023-05-23T10:34:31;2.08;;;0.85;;
12129;SDS011;6128;59.340;18.040;2023-05-23T10:37:05;3.33;;;1.20;;
12129;SDS011;6128;59.340;18.040;2023-05-23T10:39:39;2.75;;;1.33;;
12129;SDS011;6128;59.340;18.040;2023-05-23T10:42:18;2.95;;;1.23;;
12129;SDS011;6128;59.340;18.040;2023-05-23T10:44:50;2.28;;;1.70;;
12129;SDS011;6128;59.340;18.040;2023-05-23T10:47:25;3.90;;;1.30;;
12129;SDS011;6128;59.340;18.040;2023-05-23T10:49:53;2.50;;;1.20;;
12129;SDS011;6128;59.340;18.040;2023-05-23T10:52:22;1.20;;;1.05;;
12129;SDS011;6128;59.340;18.040;2023-05-23T10:54:52;0.98;;;0.98;;
12129;SDS011;6128;59.340;18.040;2023-05-23T10:57:21;6.15;;;2.00;;
12129;SDS011;6128;59.340;18.040;2023-05-23T10:59:53;1.75;;;1.65;;
12129;SDS011;6128;59.340;18.040;2023-05-23T11:02:24;2.25;;;1.20;;
12129;SDS011;6128;59.340;18.040;2023-05-23T11:07:44;3.20;;;1.05;;
12129;SDS011;6128;59.340;18.040;2023-05-23T11:10:12;1.92;;;1.33;;
12129;SDS011;6128;59.340;18.040;2023-05-23T11:12:39;4.32;;;1.35;;
12129;SDS011;6128;59.340;18.040;2023-05-23T11:15:19;4.45;;;1.13;;
12129;SDS011;6128;59.340;18.040;2023-05-23T11:17:50;1.20;;;1.02;;
12129;SDS011;6128;59.340;18.040;2023-05-23T11:20:19;2.20;;;1.77;;
12129;SDS011;6128;59.340;18.040;2023-05-23T11:22:58;1.75;;;1.10;;
12129;SDS011;6128;59.340;18.040;2023-05-23T11:25:39;1.90;;;1.08;;
12129;SDS011;6128;59.340;18.040;2023-05-23T11:28:07;1.85;;;1.20;;
12129;SDS011;6128;59.340;18.040;2023-05-23T11:30:35;4.13;;;1.30;;
12129;SDS011;6128;59.340;18.040;2023-05-23T11:33:07;2.25;;;0.95;;
12129;SDS011;6128;59.340;18.040;2023-05-23T11:35:38;4.18;;;1.13;;
12129;SDS011;6128;59.340;18.040;2023-05-23T11:38:06;3.08;;;1.27;;
12129;SDS011;6128;59.340;18.040;2023-05-23T11:40:34;2.03;;;1.20;;
12129;SDS011;6128;59.340;18.040;2023-05-23T11:43:03;4.07;;;1.30;;
12129;SDS011;6128;59.340;18.040;2023-05-23T11:45:32;2.35;;;1.00;;
12129;SDS011;6128;59.340;18.040;2023-05-23T11:48:11;2.13;;;1.30;;
12129;SDS011;6128;59.340;18.040;2023-05-23T11:50:42;2.50;;;0.98;;
12129;SDS011;6128;59.340;18.040;2023-05-23T11:53:10;1.85;;;1.10;;
12129;SDS011;6128;59.340;18.040;2023-05-23T11:55:38;1.58;;;1.05;;
12129;SDS011;6128;59.340;18.040;2023-05-23T11:58:06;1.52;;;1.42;;
12129;SDS011;6128;59.340;18.040;2023-05-23T12:00:34;3.65;;;1.15;;
12129;SDS011;6128;59.340;18.040;2023-05-23T12:03:10;4.45;;;1.27;;
12129;SDS011;6128;59.340;18.040;2023-05-23T12:05:38;1.70;;;1.20;;
12129;SDS011;6128;59.340;18.040;2023-05-23T12:08:05;1.17;;;1.08;;
12129;SDS011;6128;59.340;18.040;2023-05-23T12:10:32;2.58;;;1.33;;
12129;SDS011;6128;59.340;18.040;2023-05-23T12:13:00;1.38;;;1.10;;
12129;SDS011;6128;59.340;18.040;2023-05-23T12:15:27;2.80;;;1.50;;
12129;SDS011;6128;59.340;18.040;2023-05-23T12:17:56;1.33;;;1.10;;
12129;SDS011;6128;59.340;18.040;2023-05-23T12:20:26;3.10;;;1.23;;
12129;SDS011;6128;59.340;18.040;2023-05-23T12:22:56;1.13;;;1.02;;
12129;SDS011;6128;59.340;18.040;2023-05-23T12:25:23;2.33;;;1.05;;
12129;SDS011;6128;59.340;18.040;2023-05-23T12:27:52;3.13;;;1.38;;
12129;SDS011;6128;59.340;18.040;2023-05-23T12:30:20;1.85;;;1.27;;
12129;SDS011;6128;59.340;18.040;2023-05-23T12:32:47;1.27;;;1.17;;
12129;SDS011;6128;59.340;18.040;2023-05-23T12:35:14;2.97;;;1.27;;
12129;SDS011;6128;59.340;18.040;2023-05-23T12:37:43;2.47;;;1.40;;
12129;SDS011;6128;59.340;18.040;2023-05-23T12:40:12;2.50;;;1.30;;
12129;SDS011;6128;59.340;18.040;2023-05-23T12:42:45;2.65;;;1.30;;
12129;SDS011;6128;59.340;18.040;2023-05-23T12:45:16;3.88;;;1.50;;
12129;SDS011;6128;59.340;18.040;2023-05-23T12:47:43;2.65;;;1.30;;
12129;SDS011;6128;59.340;18.040;2023-05-23T12:50:10;1.23;;;1.05;;
12129;SDS011;6128;59.340;18.040;2023-05-23T12:52:37;2.80;;;1.20;;
12129;SDS011;6128;59.340;18.040;2023-05-23T12:55:07;3.42;;;0.88;;
12129;SDS011;6128;59.340;18.040;2023-05-23T12:57:35;1.45;;;1.10;;
12129;SDS011;6128;59.340;18.040;2023-05-23T13:00:03;4.70;;;1.25;;
12129;SDS011;6128;59.340;18.040;2023-05-23T13:02:31;2.80;;;1.30;;
12129;SDS011;6128;59.340;18.040;2023-05-23T13:04:58;3.28;;;1.23;;
12129;SDS011;6128;59.340;18.040;2023-05-23T13:07:25;1.90;;;1.17;;
12129;SDS011;6128;59.340;18.040;2023-05-23T13:09:53;3.05;;;1.30;;
12129;SDS011;6128;59.340;18.040;2023-05-23T13:12:22;3.30;;;1.40;;
12129;SDS011;6128;59.340;18.040;2023-05-23T13:14:49;3.25;;;1.20;;
12129;SDS011;6128;59.340;18.040;2023-05-23T13:17:16;2.03;;;1.17;;
12129;SDS011;6128;59.340;18.040;2023-05-23T13:19:44;2.83;;;1.20;;
12129;SDS011;6128;59.340;18.040;2023-05-23T13:22:11;3.40;;;1.20;;
12129;SDS011;6128;59.340;18.040;2023-05-23T13:24:39;3.80;;;1.40;;
12129;SDS011;6128;59.340;18.040;2023-05-23T13:27:07;1.98;;;1.30;;
12129;SDS011;6128;59.340;18.040;2023-05-23T13:29:36;2.70;;;1.40;;
12129;SDS011;6128;59.340;18.040;2023-05-23T13:32:03;2.08;;;1.00;;
12129;SDS011;6128;59.340;18.040;2023-05-23T13:34:31;3.42;;;1.20;;
12129;SDS011;6128;59.340;18.040;2023-05-23T13:37:01;2.05;;;1.33;;
12129;SDS011;6128;59.340;18.040;2023-05-23T13:39:28;2.13;;;1.30;;
12129;SDS011;6128;59.340;18.040;2023-05-23T13:41:56;1.80;;;1.10;;
12129;SDS011;6128;59.340;18.040;2023-05-23T13:44:23;1.52;;;1.10;;
12129;SDS011;6128;59.340;18.040;2023-05-23T13:46:51;2.65;;;1.30;;
12129;SDS011;6128;59.340;18.040;2023-05-23T13:49:19;1.80;;;1.25;;
12129;SDS011;6128;59.340;18.040;2023-05-23T13:51:46;3.88;;;1.42;;
12129;SDS011;6128;59.340;18.040;2023-05-23T13:54:14;2.60;;;1.35;;
12129;SDS011;6128;59.340;18.040;2023-05-23T13:56:41;1.85;;;1.50;;
12129;SDS011;6128;59.340;18.040;2023-05-23T13:59:08;1.92;;;1.35;;
12129;SDS011;6128;59.340;18.040;2023-05-23T14:01:36;1.88;;;1.25;;
12129;SDS011;6128;59.340;18.040;2023-05-23T14:04:04;2.88;;;1.73;;
12129;SDS011;6128;59.340;18.040;2023-05-23T14:06:31;1.88;;;1.35;;
12129;SDS011;6128;59.340;18.040;2023-05-23T14:08:58;1.60;;;1.00;;
12129;SDS011;6128;59.340;18.040;2023-05-23T14:11:25;4.40;;;1.23;;
12129;SDS011;6128;59.340;18.040;2023-05-23T14:13:53;1.30;;;1.15;;
12129;SDS011;6128;59.340;18.040;2023-05-23T14:16:20;3.20;;;1.60;;
12129;SDS011;6128;59.340;18.040;2023-05-23T14:18:47;3.92;;;1.20;;
12129;SDS011;6128;59.340;18.040;2023-05-23T14:21:24;1.08;;;0.90;;
12129;SDS011;6128;59.340;18.040;2023-05-23T14:23:52;2.10;;;1.30;;
12129;SDS011;6128;59.340;18.040;2023-05-23T14:26:19;2.17;;;0.90;;
12129;SDS011;6128;59.340;18.040;2023-05-23T14:28:47;2.78;;;1.13;;
12129;SDS011;6128;59.340;18.040;2023-05-23T14:31:14;3.45;;;1.20;;
12129;SDS011;6128;59.340;18.040;2023-05-23T14:33:41;4.10;;;1.38;;
12129;SDS011;6128;59.340;18.040;2023-05-23T14:36:08;1.33;;;1.20;;
12129;SDS011;6128;59.340;18.040;2023-05-23T14:38:37;1.52;;;1.00;;
12129;SDS011;6128;59.340;18.040;2023-05-23T14:41:04;2.85;;;1.30;;
12129;SDS011;6128;59.340;18.040;2023-05-23T14:43:31;6.25;;;1.42;;
12129;SDS011;6128;59.340;18.040;2023-05-23T14:45:58;2.72;;;1.40;;
12129;SDS011;6128;59.340;18.040;2023-05-23T14:48:25;2.05;;;1.20;;
12129;SDS011;6128;59.340;18.040;2023-05-23T14:50:52;2.08;;;1.20;;
12129;SDS011;6128;59.340;18.040;2023-05-23T14:53:20;1.20;;;1.10;;
12129;SDS011;6128;59.340;18.040;2023-05-23T14:55:49;2.20;;;1.30;;
12129;SDS011;6128;59.340;18.040;2023-05-23T14:58:16;2.92;;;1.38;;
12129;SDS011;6128;59.340;18.040;2023-05-23T15:00:43;1.15;;;1.10;;